createdAt,value
2017-11-10T00:01:20.351Z,11.47
2017-11-10T00:03:48.649Z,9.87
2017-11-10T00:06:16.191Z,11.43
2017-11-10T00:08:43.717Z,9.87
2017-11-10T00:11:11.237Z,11.40
2017-11-10T00:13:38.754Z,10.17
2017-11-10T00:16:06.305Z,11.30
2017-11-10T00:18:34.605Z,11.27
2017-11-10T00:21:02.885Z,10.33
2017-11-10T00:23:30.436Z,11.83
2017-11-10T00:25:58.704Z,11.57
2017-11-10T00:28:27.013Z,11.90
2017-11-10T00:30:54.540Z,11.20
2017-11-10T00:33:22.046Z,12.00
2017-11-10T00:35:49.590Z,11.00
2017-11-10T00:38:17.126Z,9.90
2017-11-10T00:40:44.639Z,10.27
2017-11-10T00:43:12.957Z,11.53
2017-11-10T00:45:41.242Z,10.10
2017-11-10T00:48:09.520Z,11.00
2017-11-10T00:50:37.829Z,9.43
2017-11-10T00:53:05.332Z,9.97
2017-11-10T00:55:32.852Z,10.97
2017-11-10T00:58:00.396Z,12.17
2017-11-10T01:00:27.914Z,11.07
2017-11-10T01:02:55.431Z,11.20
2017-11-10T01:05:22.968Z,10.63
2017-11-10T01:07:50.495Z,11.80
2017-11-10T01:10:18.032Z,12.37
2017-11-10T01:12:45.542Z,9.87
2017-11-10T01:15:13.813Z,11.73
2017-11-10T01:17:42.105Z,11.13
2017-11-10T01:20:09.621Z,11.37
2017-11-10T01:22:37.130Z,10.80
2017-11-10T01:25:04.687Z,11.43
2017-11-10T01:27:32.190Z,10.50
2017-11-10T01:29:59.702Z,11.73
2017-11-10T01:32:28.046Z,10.80
2017-11-10T01:34:55.605Z,11.30
2017-11-10T01:37:23.917Z,9.83
2017-11-10T01:39:51.479Z,11.70
2017-11-10T01:42:19.069Z,11.37
2017-11-10T01:44:46.654Z,11.80
2017-11-10T01:47:14.220Z,9.80
2017-11-10T01:49:43.664Z,10.83
2017-11-10T01:52:11.262Z,9.80
2017-11-10T01:54:38.863Z,11.03
2017-11-10T01:57:07.701Z,10.83
2017-11-10T01:59:35.301Z,11.93
2017-11-10T02:02:02.810Z,11.50
2017-11-10T02:04:30.445Z,11.90
2017-11-10T02:06:59.837Z,11.40
2017-11-10T02:09:27.432Z,11.47
2017-11-10T02:11:55.005Z,11.57
2017-11-10T02:14:22.534Z,9.50
2017-11-10T02:16:50.866Z,10.57
2017-11-10T02:19:18.418Z,11.30
2017-11-10T02:21:45.982Z,9.47
2017-11-10T02:24:13.597Z,10.10
2017-11-10T02:26:41.924Z,9.10
2017-11-10T02:29:09.515Z,9.53
2017-11-10T02:31:37.136Z,11.10
2017-11-10T02:34:04.664Z,13.33
2017-11-10T02:36:33.001Z,10.20
2017-11-10T02:39:00.651Z,11.47
2017-11-10T02:41:28.197Z,10.53
2017-11-10T02:43:55.800Z,9.60
2017-11-10T02:46:23.390Z,11.70
2017-11-10T02:48:50.917Z,11.40
2017-11-10T02:51:19.520Z,12.03
2017-11-10T02:53:47.114Z,12.57
2017-11-10T02:56:14.662Z,13.97
2017-11-10T02:58:42.253Z,12.10
2017-11-10T03:01:09.846Z,13.53
2017-11-10T03:03:37.501Z,13.73
2017-11-10T03:06:05.093Z,14.80
2017-11-10T03:08:32.663Z,15.90
2017-11-10T03:11:00.346Z,13.27
2017-11-10T03:13:27.910Z,14.63
2017-11-10T03:15:55.530Z,15.27
2017-11-10T03:18:23.189Z,15.47
2017-11-10T03:20:51.561Z,17.70
2017-11-10T03:23:20.224Z,17.53
2017-11-10T03:25:48.139Z,19.00
2017-11-10T03:28:15.881Z,16.87
2017-11-10T03:30:43.867Z,18.10
2017-11-10T03:33:12.389Z,18.80
2017-11-10T03:35:40.341Z,19.63
2017-11-10T03:38:08.077Z,19.13
2017-11-10T03:40:35.765Z,19.07
2017-11-10T03:43:03.597Z,19.03
2017-11-10T03:45:31.616Z,20.43
2017-11-10T03:47:59.650Z,18.30
2017-11-10T03:50:27.606Z,19.00
2017-11-10T03:52:56.337Z,18.30
2017-11-10T03:55:23.884Z,18.83
2017-11-10T03:57:51.448Z,18.40
2017-11-10T04:00:19.125Z,18.50
2017-11-10T04:02:46.677Z,20.53
2017-11-10T04:05:14.216Z,17.23
2017-11-10T04:07:41.814Z,18.97
2017-11-10T04:10:09.503Z,16.67
2017-11-10T04:12:37.057Z,15.40
2017-11-10T04:15:04.686Z,17.10
2017-11-10T04:17:32.267Z,16.57
2017-11-10T04:19:59.853Z,16.73
2017-11-10T04:22:27.405Z,14.83
2017-11-10T04:24:54.933Z,17.10
2017-11-10T04:27:22.521Z,18.33
2017-11-10T04:29:50.063Z,16.43
2017-11-10T04:32:17.592Z,19.33
2017-11-10T04:34:45.187Z,18.47
2017-11-10T04:37:12.761Z,16.80
2017-11-10T04:39:40.325Z,18.70
2017-11-10T04:42:07.927Z,18.33
2017-11-10T04:44:36.247Z,17.23
2017-11-10T04:47:03.778Z,16.00
2017-11-10T04:49:31.532Z,19.67
2017-11-10T04:51:59.857Z,16.20
2017-11-10T04:54:27.474Z,15.97
2017-11-10T04:56:55.817Z,16.70
2017-11-10T04:59:23.389Z,19.20
2017-11-10T05:01:50.979Z,15.67
2017-11-10T05:04:18.561Z,15.33
2017-11-10T05:06:46.094Z,14.83
2017-11-10T05:09:13.625Z,14.90
2017-11-10T05:11:41.977Z,12.53
2017-11-10T05:14:09.535Z,16.30
2017-11-10T05:16:37.143Z,14.23
2017-11-10T05:19:04.707Z,13.30
2017-11-10T05:21:32.998Z,12.10
2017-11-10T05:24:00.620Z,14.50
2017-11-10T05:26:28.146Z,13.83
2017-11-10T05:28:55.717Z,12.10
2017-11-10T05:31:23.254Z,13.00
2017-11-10T05:33:50.823Z,11.70
2017-11-10T05:36:18.333Z,11.13
2017-11-10T05:38:45.879Z,12.93
2017-11-10T05:41:13.446Z,12.30
2017-11-10T05:43:41.093Z,13.73
2017-11-10T05:46:08.631Z,13.60
2017-11-10T05:48:36.254Z,13.10
2017-11-10T05:51:04.699Z,12.63
2017-11-10T05:53:32.395Z,11.37
2017-11-10T05:56:00.678Z,14.73
2017-11-10T05:58:29.009Z,12.10
2017-11-10T06:01:12.534Z,11.13
2017-11-10T06:03:40.188Z,13.20
2017-11-10T06:06:07.780Z,13.07
2017-11-10T06:08:35.454Z,12.70
2017-11-10T06:11:03.254Z,12.50
2017-11-10T06:13:30.954Z,12.47
2017-11-10T06:15:58.607Z,12.83
2017-11-10T06:18:29.786Z,14.63
2017-11-10T06:20:57.436Z,14.40
2017-11-10T06:23:24.990Z,12.90
2017-11-10T06:25:52.590Z,12.20
2017-11-10T06:28:20.190Z,13.33
2017-11-10T06:30:47.893Z,14.03
2017-11-10T06:33:15.440Z,12.43
2017-11-10T06:35:42.980Z,14.37
2017-11-10T06:38:10.494Z,13.57
2017-11-10T06:40:38.042Z,13.97
2017-11-10T06:43:05.840Z,12.47
2017-11-10T06:45:33.428Z,12.17
2017-11-10T06:48:01.418Z,14.50
2017-11-10T06:50:29.490Z,14.93
2017-11-10T06:52:57.081Z,13.60
2017-11-10T06:55:25.418Z,13.37
2017-11-10T06:57:52.929Z,16.50
2017-11-10T07:00:21.217Z,12.83
2017-11-10T07:02:49.541Z,16.60
2017-11-10T07:05:17.070Z,16.20
2017-11-10T07:07:44.596Z,11.53
2017-11-10T07:10:12.905Z,13.60
2017-11-10T07:12:40.428Z,15.57
2017-11-10T07:15:07.942Z,15.27
2017-11-10T07:17:36.253Z,16.40
2017-11-10T07:20:03.775Z,15.80
2017-11-10T07:22:31.283Z,14.80
2017-11-10T07:24:58.821Z,14.70
2017-11-10T07:27:26.338Z,15.07
2017-11-10T07:29:53.861Z,14.23
2017-11-10T07:32:22.186Z,15.00
2017-11-10T07:34:49.698Z,14.97
2017-11-10T07:37:17.979Z,14.93
2017-11-10T07:39:45.536Z,15.17
2017-11-10T07:42:13.048Z,14.80
2017-11-10T07:44:40.553Z,14.70
2017-11-10T07:47:08.094Z,16.70
2017-11-10T07:49:35.623Z,15.17
2017-11-10T07:52:03.133Z,16.80
2017-11-10T07:54:30.670Z,14.03
2017-11-10T07:56:58.178Z,13.60
2017-11-10T07:59:25.689Z,14.63
2017-11-10T08:01:53.238Z,15.50
2017-11-10T08:04:20.756Z,16.03
2017-11-10T08:06:48.286Z,14.10
2017-11-10T08:09:15.842Z,14.77
2017-11-10T08:11:43.371Z,14.60
2017-11-10T08:14:10.894Z,15.10
2017-11-10T08:16:38.439Z,13.60
2017-11-10T08:19:05.962Z,14.23
2017-11-10T08:21:33.483Z,14.07
2017-11-10T08:24:01.029Z,14.30
2017-11-10T08:26:29.361Z,14.23
2017-11-10T08:28:56.913Z,14.10
2017-11-10T08:31:24.421Z,14.90
2017-11-10T08:33:51.934Z,14.30
2017-11-10T08:36:19.480Z,14.50
2017-11-10T08:38:46.991Z,12.73
2017-11-10T08:41:15.266Z,15.27
2017-11-10T08:43:42.811Z,14.57
2017-11-10T08:46:10.334Z,13.03
2017-11-10T08:48:37.847Z,16.33
2017-11-10T08:51:05.386Z,13.40
2017-11-10T08:53:32.921Z,13.53
2017-11-10T08:56:00.433Z,14.67
2017-11-10T08:58:27.954Z,13.67
2017-11-10T09:00:56.262Z,13.00
2017-11-10T09:03:24.549Z,13.00
2017-11-10T09:05:52.835Z,13.20
2017-11-10T09:08:21.164Z,13.17
2017-11-10T09:10:48.669Z,14.00
2017-11-10T09:13:16.178Z,13.53
2017-11-10T09:15:43.725Z,15.00
2017-11-10T09:18:11.234Z,13.43
2017-11-10T09:20:38.753Z,14.87
2017-11-10T09:23:06.302Z,13.27
2017-11-10T09:25:33.818Z,13.33
2017-11-10T09:28:05.761Z,12.70
2017-11-10T09:30:33.298Z,12.70
2017-11-10T09:33:01.491Z,12.93
2017-11-10T09:35:44.768Z,12.30
2017-11-10T09:38:36.865Z,13.83
2017-11-10T09:41:19.294Z,13.77
2017-11-10T09:43:57.526Z,12.30
2017-11-10T09:46:25.042Z,11.80
2017-11-10T09:48:58.205Z,12.33
2017-11-10T10:05:22.116Z,12.53
2017-11-10T10:07:53.092Z,13.17
2017-11-10T10:10:35.518Z,12.10
2017-11-10T10:13:08.769Z,13.60
2017-11-10T10:28:57.058Z,12.07
2017-11-10T10:31:24.594Z,14.17
2017-11-10T10:33:52.123Z,15.00
2017-11-10T10:36:19.681Z,14.20
2017-11-10T10:38:47.226Z,12.80
2017-11-10T10:41:14.746Z,12.83
2017-11-10T10:43:42.252Z,13.83
2017-11-10T10:46:09.809Z,12.97
2017-11-10T10:48:37.329Z,14.23
2017-11-10T10:51:04.869Z,14.03
2017-11-10T10:53:32.397Z,13.77
2017-11-10T10:55:59.910Z,13.73
2017-11-10T10:58:27.437Z,11.93
2017-11-10T11:00:54.985Z,12.60
2017-11-10T11:03:23.271Z,12.07
2017-11-10T11:05:50.774Z,13.40
2017-11-10T11:08:18.311Z,13.23
2017-11-10T11:10:45.820Z,11.13
2017-11-10T11:13:13.329Z,13.50
2017-11-10T11:15:40.902Z,13.40
2017-11-10T11:18:08.433Z,12.17
2017-11-10T11:20:35.942Z,12.70
2017-11-10T11:23:03.477Z,12.30
2017-11-10T11:25:30.997Z,12.27
2017-11-10T11:27:58.546Z,13.73
2017-11-10T11:30:26.047Z,11.87
2017-11-10T11:32:53.553Z,13.63
2017-11-10T11:35:21.098Z,12.60
2017-11-10T11:37:48.613Z,12.80
2017-11-10T11:40:16.131Z,13.00
2017-11-10T11:42:43.682Z,11.87
2017-11-10T11:45:11.189Z,12.10
2017-11-10T11:47:38.709Z,12.97
2017-11-10T11:50:06.241Z,12.10
2017-11-10T11:52:33.761Z,11.40
2017-11-10T11:55:02.073Z,13.13
2017-11-10T11:57:29.597Z,14.33
2017-11-10T11:59:57.874Z,12.47
2017-11-10T12:02:26.184Z,14.37
2017-11-10T12:04:53.702Z,12.53
2017-11-10T12:07:21.213Z,12.27
2017-11-10T12:09:48.752Z,11.77
2017-11-10T12:12:16.258Z,13.60
2017-11-10T12:14:43.777Z,12.67
2017-11-10T12:17:11.309Z,13.93
2017-11-10T12:19:38.854Z,12.40
2017-11-10T12:22:06.397Z,13.77
2017-11-10T12:24:34.030Z,12.57
2017-11-10T12:27:02.317Z,13.07
2017-11-10T12:29:29.852Z,13.00
2017-11-10T12:31:57.398Z,12.90
2017-11-10T12:34:24.923Z,14.20
2017-11-10T12:36:52.445Z,14.20
2017-11-10T12:39:20.065Z,12.97
2017-11-10T12:41:48.347Z,13.67
2017-11-10T12:44:16.642Z,13.13
2017-11-10T12:46:44.215Z,11.97
2017-11-10T12:49:11.740Z,11.70
2017-11-10T12:51:39.842Z,12.47
2017-11-10T12:54:07.396Z,14.20
2017-11-10T12:56:34.914Z,12.10
2017-11-10T12:59:02.457Z,12.00
2017-11-10T13:01:29.969Z,11.63
2017-11-10T13:03:57.470Z,12.13
2017-11-10T13:06:25.016Z,12.67
2017-11-10T13:08:52.526Z,11.90
2017-11-10T13:11:20.045Z,12.00
2017-11-10T13:13:47.596Z,12.77
2017-11-10T13:16:15.112Z,11.87
2017-11-10T13:18:42.630Z,10.30
2017-11-10T13:21:10.173Z,11.20
2017-11-10T13:23:37.741Z,11.20
2017-11-10T13:26:07.384Z,11.47
2017-11-10T13:28:37.587Z,11.40
2017-11-10T13:31:02.627Z,11.00
2017-11-10T13:33:30.141Z,10.00
2017-11-10T13:35:57.704Z,9.83
2017-11-10T13:38:25.328Z,10.90
2017-11-10T13:40:52.843Z,10.47
2017-11-10T13:43:20.403Z,9.57
2017-11-10T13:45:48.787Z,8.80
2017-11-10T13:48:16.325Z,10.17
2017-11-10T13:50:43.890Z,9.07
2017-11-10T13:53:11.441Z,9.43
2017-11-10T13:55:39.001Z,9.17
2017-11-10T13:58:06.666Z,10.27
2017-11-10T14:00:34.298Z,9.57
2017-11-10T14:03:02.123Z,8.70
2017-11-10T14:05:29.861Z,10.50
2017-11-10T14:07:57.520Z,9.20
2017-11-10T14:10:25.462Z,9.33
2017-11-10T14:12:53.263Z,10.10
2017-11-10T14:15:20.802Z,9.60
2017-11-10T14:17:48.368Z,8.67
2017-11-10T14:20:16.024Z,8.40
2017-11-10T14:22:44.087Z,11.03
2017-11-10T14:25:11.661Z,10.77
2017-11-10T14:27:39.318Z,9.20
2017-11-10T14:30:07.785Z,9.20
2017-11-10T14:32:37.143Z,9.13
2017-11-10T14:35:05.544Z,8.93
2017-11-10T14:37:33.157Z,9.98
2017-11-10T14:40:01.011Z,8.60
2017-11-10T14:42:28.830Z,9.10
2017-11-10T14:44:57.011Z,9.87
2017-11-10T14:47:25.132Z,8.50
2017-11-10T14:49:53.648Z,8.07
2017-11-10T14:52:21.400Z,8.50
2017-11-10T14:54:49.010Z,9.50
2017-11-10T14:57:16.692Z,9.27
2017-11-10T14:59:44.446Z,8.50
2017-11-10T15:02:12.155Z,7.53
2017-11-10T15:04:39.775Z,9.03
2017-11-10T15:07:07.620Z,9.53
2017-11-10T15:09:35.215Z,8.20
2017-11-10T15:12:02.855Z,8.27
2017-11-10T15:14:30.526Z,8.53
2017-11-10T15:16:58.101Z,8.07
2017-11-10T15:19:25.731Z,9.37
2017-11-10T15:21:53.309Z,9.23
2017-11-10T15:24:20.871Z,10.10
2017-11-10T15:26:48.514Z,9.00
2017-11-10T15:29:16.127Z,9.93
2017-11-10T15:31:43.742Z,7.53
2017-11-10T15:34:12.026Z,8.03
2017-11-10T15:36:39.620Z,9.70
2017-11-10T15:39:07.178Z,9.50
2017-11-10T15:41:35.608Z,8.70
2017-11-10T15:44:03.933Z,8.53
2017-11-10T15:46:31.510Z,8.83
2017-11-10T15:48:59.076Z,8.13
2017-11-10T15:51:26.587Z,8.80
2017-11-10T15:53:54.782Z,7.53
2017-11-10T15:56:23.618Z,7.60
2017-11-10T15:58:51.936Z,9.80
2017-11-10T16:01:19.484Z,8.10
2017-11-10T16:03:46.996Z,8.90
2017-11-10T16:06:14.537Z,10.10
2017-11-10T16:08:42.086Z,9.17
2017-11-10T16:11:09.738Z,8.67
2017-11-10T16:13:37.280Z,9.13
2017-11-10T16:16:04.838Z,9.20
2017-11-10T16:18:33.124Z,9.30
2017-11-10T16:21:00.654Z,8.50
2017-11-10T16:23:28.209Z,8.57
2017-11-10T16:25:55.709Z,8.20
2017-11-10T16:28:23.222Z,6.67
2017-11-10T16:30:50.798Z,7.33
2017-11-10T16:33:19.105Z,7.60
2017-11-10T16:35:46.622Z,7.20
2017-11-10T16:38:14.159Z,8.60
2017-11-10T16:40:42.468Z,6.93
2017-11-10T16:43:10.851Z,7.07
2017-11-10T16:45:38.409Z,7.03
2017-11-10T16:48:06.688Z,7.10
2017-11-10T16:50:34.984Z,5.83
2017-11-10T16:53:02.581Z,5.97
2017-11-10T16:55:30.142Z,7.60
2017-11-10T16:57:57.695Z,6.70
2017-11-10T17:00:25.203Z,6.93
2017-11-10T17:02:52.718Z,6.43
2017-11-10T17:05:21.187Z,6.40
2017-11-10T17:07:48.700Z,5.27
2017-11-10T17:10:16.237Z,5.50
2017-11-10T17:12:43.778Z,5.63
2017-11-10T17:15:11.283Z,6.00
2017-11-10T17:20:12.799Z,6.43
2017-11-10T17:22:40.301Z,5.97
2017-11-10T17:25:07.846Z,9.23
2017-11-10T17:27:35.385Z,5.37
2017-11-10T17:30:02.902Z,7.60
2017-11-10T17:32:30.517Z,5.30
2017-11-10T17:34:58.032Z,5.70
2017-11-10T17:37:26.301Z,6.07
2017-11-10T17:39:54.606Z,5.43
2017-11-10T17:42:22.140Z,5.70
2017-11-10T17:44:50.468Z,5.50
2017-11-10T17:47:18.024Z,4.80
2017-11-10T17:49:45.645Z,5.40
2017-11-10T17:52:13.960Z,5.97
2017-11-10T17:54:41.487Z,4.80
2017-11-10T17:57:09.016Z,5.63
2017-11-10T17:59:36.554Z,5.30
2017-11-10T18:02:04.084Z,5.10
2017-11-10T18:04:31.598Z,4.67
2017-11-10T18:06:59.918Z,5.40
2017-11-10T18:09:27.521Z,5.03
2017-11-10T18:11:55.055Z,5.00
2017-11-10T18:14:23.757Z,5.33
2017-11-10T18:16:51.370Z,4.43
2017-11-10T18:19:18.915Z,4.77
2017-11-10T18:21:47.263Z,4.67
2017-11-10T18:24:14.848Z,6.43
2017-11-10T18:26:42.357Z,5.73
2017-11-10T18:29:09.925Z,4.83
2017-11-10T18:31:37.471Z,4.93
2017-11-10T18:34:05.071Z,5.03
2017-11-10T18:36:32.653Z,6.10
2017-11-10T18:39:00.163Z,5.03
2017-11-10T18:41:27.701Z,5.03
2017-11-10T18:43:55.223Z,5.43
2017-11-10T18:46:22.740Z,5.40
2017-11-10T18:48:55.810Z,5.57
2017-11-10T18:51:23.342Z,5.87
2017-11-10T18:53:50.911Z,5.60
2017-11-10T18:56:18.528Z,5.50
2017-11-10T18:58:46.040Z,5.80
2017-11-10T19:01:14.352Z,6.53
2017-11-10T19:03:41.914Z,6.30
2017-11-10T19:06:09.578Z,6.70
2017-11-10T19:08:37.149Z,6.00
2017-11-10T19:11:04.692Z,5.73
2017-11-10T19:13:32.226Z,6.43
2017-11-10T19:16:00.586Z,5.80
2017-11-10T19:18:28.226Z,5.30
2017-11-10T19:20:55.743Z,6.80
2017-11-10T19:23:23.721Z,5.67
2017-11-10T19:25:51.398Z,5.33
2017-11-10T19:28:19.217Z,6.53
2017-11-10T19:30:46.896Z,5.47
2017-11-10T19:33:15.022Z,6.60
2017-11-10T19:35:42.739Z,6.70
2017-11-10T19:38:10.340Z,5.77
2017-11-10T19:40:37.920Z,6.07
2017-11-10T19:43:06.531Z,5.40
2017-11-10T19:45:34.198Z,6.23
2017-11-10T19:48:02.153Z,6.73
2017-11-10T19:50:30.069Z,7.03
2017-11-10T19:52:57.871Z,6.20
2017-11-10T19:55:26.457Z,6.27
2017-11-10T19:57:54.221Z,6.40
2017-11-10T20:00:23.181Z,5.70
2017-11-10T20:02:52.071Z,6.10
2017-11-10T20:05:20.128Z,5.77
2017-11-10T20:07:47.955Z,6.30
2017-11-10T20:10:15.902Z,6.53
2017-11-10T20:12:44.232Z,6.27
2017-11-10T20:15:12.115Z,6.80
2017-11-10T20:17:40.223Z,6.83
2017-11-10T20:20:08.330Z,6.50
2017-11-10T20:22:36.931Z,5.97
2017-11-10T20:25:05.188Z,5.70
2017-11-10T20:27:33.264Z,5.40
2017-11-10T20:30:01.405Z,5.67
2017-11-10T20:32:29.505Z,6.40
2017-11-10T20:34:57.521Z,6.60
2017-11-10T20:37:25.553Z,5.17
2017-11-10T20:39:53.691Z,5.43
2017-11-10T20:42:22.539Z,4.73
2017-11-10T20:44:50.716Z,4.90
2017-11-10T20:47:18.968Z,5.50
2017-11-10T20:49:47.042Z,4.70
2017-11-10T20:52:14.734Z,4.87
2017-11-10T20:54:42.398Z,5.27
2017-11-10T20:57:10.095Z,5.10
2017-11-10T20:59:37.771Z,4.50
2017-11-10T21:02:05.352Z,4.90
2017-11-10T21:04:32.963Z,5.53
2017-11-10T21:07:00.645Z,3.80
2017-11-10T21:09:28.274Z,3.50
2017-11-10T21:11:55.870Z,4.00
2017-11-10T21:14:23.513Z,3.80
2017-11-10T21:16:51.032Z,3.13
2017-11-10T21:19:18.572Z,3.73
2017-11-10T21:21:46.963Z,3.33
2017-11-10T21:24:14.544Z,3.27
2017-11-10T21:26:42.134Z,3.83
2017-11-10T21:29:09.658Z,3.30
2017-11-10T21:31:37.225Z,3.10
2017-11-10T21:34:04.775Z,2.73
2017-11-10T21:36:33.052Z,3.70
2017-11-10T21:39:01.322Z,2.97
2017-11-10T21:41:29.611Z,3.33
2017-11-10T21:43:57.118Z,3.47
2017-11-10T21:46:24.684Z,3.27
2017-11-10T21:48:52.202Z,2.70
2017-11-10T21:51:19.719Z,3.33
2017-11-10T21:53:47.268Z,3.60
2017-11-10T21:56:14.780Z,3.20
2017-11-10T21:58:42.293Z,3.60
2017-11-10T22:01:09.818Z,4.97
2017-11-10T22:03:37.357Z,3.50
2017-11-10T22:06:04.884Z,3.77
2017-11-10T22:08:32.429Z,4.93
2017-11-10T22:10:59.937Z,4.30
2017-11-10T22:13:27.454Z,4.57
2017-11-10T22:15:55.116Z,4.60
2017-11-10T22:18:22.625Z,4.13
2017-11-10T22:20:50.142Z,3.17
2017-11-10T22:23:17.733Z,3.50
2017-11-10T22:25:45.250Z,4.43
2017-11-10T22:28:12.845Z,3.83
2017-11-10T22:30:40.378Z,3.33
2017-11-10T22:33:07.883Z,3.90
2017-11-10T22:35:35.438Z,3.60
2017-11-10T22:38:02.956Z,3.83
2017-11-10T22:40:30.477Z,4.37
2017-11-10T22:42:58.062Z,4.17
2017-11-10T22:45:25.578Z,3.40
2017-11-10T22:47:53.450Z,3.77
2017-11-10T22:50:20.962Z,3.03
2017-11-10T22:52:48.714Z,4.00
2017-11-10T22:55:16.253Z,4.10
2017-11-10T22:57:43.765Z,4.63
2017-11-10T23:00:12.051Z,4.00
2017-11-10T23:02:40.366Z,3.70
2017-11-10T23:05:08.010Z,4.60
2017-11-10T23:07:35.559Z,4.37
2017-11-10T23:10:03.189Z,4.70
2017-11-10T23:12:31.474Z,4.33
2017-11-10T23:14:59.772Z,5.73
2017-11-10T23:17:27.305Z,4.80
2017-11-10T23:19:54.850Z,5.23
2017-11-10T23:22:22.355Z,4.03
2017-11-10T23:24:49.866Z,4.37
2017-11-10T23:27:17.406Z,4.53
2017-11-10T23:29:44.917Z,6.10
2017-11-10T23:32:12.453Z,4.80
2017-11-10T23:34:39.996Z,5.60
2017-11-10T23:37:07.505Z,5.37
2017-11-10T23:39:35.207Z,4.73
2017-11-10T23:42:02.729Z,5.10
2017-11-10T23:44:30.989Z,4.93
2017-11-10T23:46:59.293Z,5.53
2017-11-10T23:49:26.831Z,5.50
2017-11-10T23:51:54.399Z,4.77
2017-11-10T23:54:22.709Z,4.80
2017-11-10T23:56:50.212Z,4.43
2017-11-10T23:59:17.722Z,5.00
